createdAt,value
2022-12-04T00:02:01.876Z,101803.56
2022-12-04T00:04:30.652Z,101800.38
2022-12-04T00:06:59.305Z,101799.66
2022-12-04T00:09:27.848Z,101815.09
2022-12-04T00:11:56.411Z,101811.66
2022-12-04T00:14:26.360Z,101813.94
2022-12-04T00:16:55.008Z,101817.91
2022-12-04T00:19:23.539Z,101819.53
2022-12-04T00:21:52.312Z,101815.63
2022-12-04T00:24:20.828Z,101814.84
2022-12-04T00:26:49.320Z,101807.31
2022-12-04T00:29:18.190Z,101811.38
2022-12-04T00:31:48.083Z,101807.66
2022-12-04T00:34:16.794Z,101799.06
2022-12-04T00:36:45.414Z,101800.91
2022-12-04T00:39:13.902Z,101801.53
2022-12-04T00:41:42.432Z,101797.91
2022-12-04T00:44:10.915Z,101793.72
2022-12-04T00:46:39.439Z,101791.16
2022-12-04T00:49:09.299Z,101796.53
2022-12-04T00:51:37.815Z,101798.19
2022-12-04T00:54:06.347Z,101802.69
2022-12-04T00:56:34.849Z,101802.69
2022-12-04T00:59:03.603Z,101807.03
2022-12-04T01:01:32.541Z,101806.25
2022-12-04T01:04:01.474Z,101797.56
2022-12-04T01:06:34.534Z,101801.78
2022-12-04T01:09:05.979Z,101795.78
2022-12-04T01:11:35.041Z,101798.34
2022-12-04T01:14:03.747Z,101801.00
2022-12-04T01:16:34.892Z,101800.91
2022-12-04T01:19:03.888Z,101804.47
2022-12-04T01:21:33.854Z,101800.28
2022-12-04T01:24:02.409Z,101801.16
2022-12-04T01:26:31.367Z,101790.91
2022-12-04T01:29:00.187Z,101801.16
2022-12-04T01:31:28.834Z,101800.13
2022-12-04T01:33:57.445Z,101797.16
2022-12-04T01:36:30.116Z,101794.50
2022-12-04T01:39:03.118Z,101784.38
2022-12-04T01:41:33.155Z,101785.28
2022-12-04T01:44:19.148Z,101790.38
2022-12-04T01:46:51.455Z,101778.50
2022-12-04T01:49:24.882Z,101781.47
2022-12-04T01:51:55.762Z,101778.91
2022-12-04T01:54:29.938Z,101785.81
2022-12-04T01:57:02.967Z,101778.00
2022-12-04T01:59:37.241Z,101786.19
2022-12-04T02:02:08.866Z,101782.72
2022-12-04T02:04:38.716Z,101775.03
2022-12-04T02:07:07.335Z,101778.63
2022-12-04T02:09:39.800Z,101776.97
2022-12-04T02:12:16.493Z,101776.84
2022-12-04T02:14:53.436Z,101766.22
2022-12-04T02:17:28.892Z,101767.09
2022-12-04T02:20:13.887Z,101756.88
2022-12-04T02:23:15.556Z,101761.25
2022-12-04T02:25:54.512Z,101754.31
2022-12-04T02:28:27.289Z,101758.41
2022-12-04T02:31:00.833Z,101759.44
2022-12-04T02:33:36.205Z,101753.69
2022-12-04T02:36:08.115Z,101749.47
2022-12-04T02:38:41.772Z,101751.00
2022-12-04T02:41:15.633Z,101752.53
2022-12-04T02:43:48.522Z,101759.31
2022-12-04T02:46:22.216Z,101751.66
2022-12-04T02:48:54.600Z,101752.28
2022-12-04T02:51:27.264Z,101745.63
2022-12-04T02:53:59.753Z,101745.91
2022-12-04T02:56:31.343Z,101740.78
2022-12-04T02:59:05.623Z,101742.56
2022-12-04T03:01:37.675Z,101729.03
2022-12-04T03:04:13.191Z,101719.81
2022-12-04T03:06:45.307Z,101724.91
2022-12-04T03:09:18.787Z,101724.03
2022-12-04T03:11:53.696Z,101714.59
2022-12-04T03:14:27.384Z,101714.69
2022-12-04T03:17:02.568Z,101718.16
2022-12-04T03:19:38.398Z,101720.84
2022-12-04T03:22:11.673Z,101724.91
2022-12-04T03:24:44.880Z,101729.28
2022-12-04T03:27:17.947Z,101721.00
2022-12-04T03:29:55.050Z,101710.88
2022-12-04T03:32:28.766Z,101717.81
2022-12-04T03:35:00.521Z,101728.53
2022-12-04T03:37:37.208Z,101729.53
2022-12-04T03:40:12.759Z,101725.59
2022-12-04T03:42:45.784Z,101732.63
2022-12-04T03:45:23.184Z,101727.78
2022-12-04T03:47:58.310Z,101732.13
2022-12-04T03:50:35.217Z,101733.66
2022-12-04T03:53:10.094Z,101731.88
2022-12-04T03:55:46.384Z,101733.66
2022-12-04T03:58:20.938Z,101734.69
2022-12-04T04:00:53.887Z,101733.91
2022-12-04T04:03:26.271Z,101727.16
2022-12-04T04:06:05.770Z,101728.81
2022-12-04T04:08:37.500Z,101714.09
2022-12-04T04:11:14.206Z,101710.13
2022-12-04T04:14:05.104Z,101711.94
2022-12-04T04:16:55.485Z,101696.59
2022-12-04T04:19:44.483Z,101708.34
2022-12-04T04:22:32.152Z,101704.00
2022-12-04T04:25:06.329Z,101699.88
2022-12-04T04:27:34.883Z,101703.34
2022-12-04T04:30:03.711Z,101695.97
2022-12-04T04:32:37.879Z,101710.69
2022-12-04T04:35:15.214Z,101705.28
2022-12-04T04:37:54.923Z,101709.88
2022-12-04T04:40:32.347Z,101705.63
2022-12-04T04:43:08.948Z,101694.16
2022-12-04T04:45:39.901Z,101711.16
2022-12-04T04:48:15.079Z,101707.56
2022-12-04T04:50:45.478Z,101710.41
2022-12-04T04:53:17.230Z,101713.25
2022-12-04T04:55:47.059Z,101712.47
2022-12-04T04:58:18.840Z,101709.13
2022-12-04T05:00:57.925Z,101710.16
2022-12-04T05:03:28.607Z,101718.59
2022-12-04T05:05:57.636Z,101702.22
2022-12-04T05:08:26.192Z,101704.28
2022-12-04T05:10:54.903Z,101703.50
2022-12-04T05:13:23.771Z,101707.59
2022-12-04T05:15:58.604Z,101714.63
2022-12-04T05:18:29.220Z,101707.22
2022-12-04T05:20:56.999Z,101713.25
2022-12-04T05:23:25.921Z,101713.88
2022-12-04T05:26:00.899Z,101713.88
2022-12-04T05:28:30.048Z,101715.41
2022-12-04T05:30:59.182Z,101712.97
2022-12-04T05:33:29.132Z,101702.09
2022-12-04T05:35:59.017Z,101701.19
2022-12-04T05:38:27.794Z,101703.91
2022-12-04T05:40:58.690Z,101702.38
2022-12-04T05:43:27.283Z,101704.03
2022-12-04T05:45:55.892Z,101710.16
2022-12-04T05:48:24.433Z,101705.97
2022-12-04T05:50:54.331Z,101720.41
2022-12-04T05:53:22.996Z,101718.47
2022-12-04T05:56:02.454Z,101711.72
2022-12-04T05:58:31.189Z,101703.03
2022-12-04T06:00:59.664Z,101704.94
2022-12-04T06:03:28.460Z,101704.16
2022-12-04T06:05:58.386Z,101704.28
2022-12-04T06:08:26.887Z,101702.91
2022-12-04T06:10:55.415Z,101698.94
2022-12-04T06:13:23.955Z,101701.72
2022-12-04T06:15:52.467Z,101706.09
2022-12-04T06:18:20.997Z,101706.22
2022-12-04T06:20:49.561Z,101704.41
2022-12-04T06:23:19.458Z,101705.56
2022-12-04T06:25:47.967Z,101704.28
2022-12-04T06:28:16.560Z,101705.47
2022-12-04T06:30:45.092Z,101705.47
2022-12-04T06:33:13.560Z,101702.00
2022-12-04T06:35:42.054Z,101697.66
2022-12-04T06:38:10.574Z,101696.75
2022-12-04T06:40:42.175Z,101705.31
2022-12-04T06:43:10.707Z,101702.50
2022-12-04T06:45:39.234Z,101701.47
2022-12-04T06:48:07.988Z,101694.03
2022-12-04T06:50:36.613Z,101702.63
2022-12-04T06:53:08.491Z,101704.03
2022-12-04T06:55:37.294Z,101701.34
2022-12-04T06:58:07.560Z,101707.63
2022-12-04T07:00:36.096Z,101695.59
2022-12-04T07:03:04.966Z,101704.28
2022-12-04T07:05:33.468Z,101700.97
2022-12-04T07:08:02.016Z,101700.06
2022-12-04T07:10:30.614Z,101702.50
2022-12-04T07:12:59.171Z,101700.97
2022-12-04T07:15:29.060Z,101703.78
2022-12-04T07:17:58.230Z,101705.56
2022-12-04T07:20:26.890Z,101703.00
2022-12-04T07:22:55.567Z,101702.25
2022-12-04T07:25:24.438Z,101699.72
2022-12-04T07:27:52.995Z,101706.34
2022-12-04T07:30:21.809Z,101702.00
2022-12-04T07:32:51.658Z,101701.22
2022-12-04T07:35:20.260Z,101698.66
2022-12-04T07:37:48.899Z,101702.38
2022-12-04T07:40:17.622Z,101701.50
2022-12-04T07:42:46.158Z,101697.25
2022-12-04T07:45:14.802Z,101705.84
2022-12-04T07:47:43.325Z,101707.50
2022-12-04T07:50:13.317Z,101714.44
2022-12-04T07:52:41.860Z,101711.97
2022-12-04T07:55:10.822Z,101720.69
2022-12-04T07:57:39.338Z,101716.44
2022-12-04T08:00:09.139Z,101710.44
2022-12-04T08:02:37.848Z,101723.50
2022-12-04T08:05:06.857Z,101726.31
2022-12-04T08:07:37.022Z,101723.75
2022-12-04T08:10:06.552Z,101726.03
2022-12-04T08:12:35.157Z,101726.31
2022-12-04T08:15:03.656Z,101729.00
2022-12-04T08:17:32.237Z,101730.81
2022-12-04T08:20:01.359Z,101739.63
2022-12-04T08:22:29.906Z,101734.38
2022-12-04T08:24:59.899Z,101725.03
2022-12-04T08:27:28.399Z,101726.81
2022-12-04T08:29:57.467Z,101725.19
2022-12-04T08:32:26.295Z,101725.19
2022-12-04T08:34:56.020Z,101728.88
2022-12-04T08:37:24.655Z,101727.34
2022-12-04T08:39:53.597Z,101729.91
2022-12-04T08:42:23.789Z,101731.69
2022-12-04T08:44:52.315Z,101730.94
2022-12-04T08:47:20.913Z,101719.91
2022-12-04T08:49:49.487Z,101726.81
2022-12-04T08:52:18.134Z,101726.69
2022-12-04T08:54:46.939Z,101720.69
2022-12-04T08:57:15.467Z,101719.16
2022-12-04T08:59:45.415Z,101722.72
2022-12-04T09:02:14.126Z,101715.03
2022-12-04T09:04:43.081Z,101717.59
2022-12-04T09:07:11.631Z,101716.06
2022-12-04T09:09:44.932Z,101715.31
2022-12-04T09:12:16.558Z,101708.00
2022-12-04T09:14:46.499Z,101711.19
2022-12-04T09:17:15.037Z,101711.47
2022-12-04T09:19:43.840Z,101718.38
2022-12-04T09:22:12.309Z,101717.59
2022-12-04T09:24:40.794Z,101726.19
2022-12-04T09:27:14.531Z,101728.09
2022-12-04T09:29:43.574Z,101734.63
2022-12-04T09:32:13.704Z,101735.78
2022-12-04T09:34:42.236Z,101731.66
2022-12-04T09:37:10.794Z,101724.13
2022-12-04T09:39:39.356Z,101720.66
2022-12-04T09:42:32.127Z,101725.91
2022-12-04T09:45:07.096Z,101718.59
2022-12-04T09:47:42.847Z,101716.28
2022-12-04T09:50:16.140Z,101719.84
2022-12-04T09:52:56.155Z,101713.84
2022-12-04T09:55:28.908Z,101709.88
2022-12-04T09:58:02.423Z,101709.09
2022-12-04T10:00:33.944Z,101711.78
2022-12-04T10:03:06.576Z,101705.75
2022-12-04T10:05:46.784Z,101695.50
2022-12-04T10:08:23.091Z,101684.50
2022-12-04T10:11:02.600Z,101690.38
2022-12-04T10:14:15.755Z,101688.09
2022-12-04T10:16:57.265Z,101675.91
2022-12-04T10:19:36.267Z,101683.97
2022-12-04T10:22:13.250Z,101683.09
2022-12-04T10:24:45.286Z,101673.84
2022-12-04T10:27:25.416Z,101671.16
2022-12-04T10:29:58.599Z,101669.63
2022-12-04T10:32:31.382Z,101668.72
2022-12-04T10:35:21.239Z,101667.06
2022-12-04T10:37:55.323Z,101666.28
2022-12-04T10:40:29.733Z,101660.91
2022-12-04T10:43:01.875Z,101652.69
2022-12-04T10:45:30.278Z,101657.81
2022-12-04T10:47:59.580Z,101655.25
2022-12-04T10:50:29.687Z,101659.88
2022-12-04T10:52:58.174Z,101666.91
2022-12-04T10:55:30.935Z,101659.34
2022-12-04T10:57:59.585Z,101652.66
2022-12-04T11:00:30.751Z,101651.00
2022-12-04T11:03:02.340Z,101649.31
2022-12-04T11:05:34.755Z,101646.75
2022-12-04T11:08:07.605Z,101649.72
2022-12-04T11:10:39.070Z,101645.47
2022-12-04T11:13:15.970Z,101640.34
2022-12-04T11:15:45.757Z,101639.03
2022-12-04T11:18:19.241Z,101642.13
2022-12-04T11:20:55.762Z,101643.94
2022-12-04T11:23:24.942Z,101638.81
2022-12-04T11:25:59.370Z,101637.00
2022-12-04T11:28:41.556Z,101638.91
2022-12-04T11:31:17.461Z,101634.81
2022-12-04T11:33:49.766Z,101632.38
2022-12-04T11:36:24.644Z,101639.03
2022-12-04T11:38:55.604Z,101638.25
2022-12-04T11:41:29.635Z,101631.59
2022-12-04T11:44:00.733Z,101635.16
2022-12-04T11:46:31.865Z,101633.59
2022-12-04T11:49:00.518Z,101639.63
2022-12-04T11:51:44.515Z,101631.72
2022-12-04T11:54:27.723Z,101626.81
2022-12-04T11:57:05.010Z,101612.34
2022-12-04T11:59:48.914Z,101615.91
2022-12-04T12:02:34.714Z,101617.69
2022-12-04T12:05:30.614Z,101605.91
2022-12-04T12:08:09.554Z,101608.47
2022-12-04T12:10:49.324Z,101611.03
2022-12-04T12:13:28.263Z,101612.81
2022-12-04T12:16:05.526Z,101604.34
2022-12-04T12:19:04.840Z,101607.69
2022-12-04T12:21:41.387Z,101608.34
2022-12-04T12:24:25.806Z,101607.44
2022-12-04T12:27:06.588Z,101602.31
2022-12-04T12:29:55.510Z,101607.69
2022-12-04T12:32:47.237Z,101602.56
2022-12-04T12:35:23.346Z,101606.25
2022-12-04T12:37:54.681Z,101602.78
2022-12-04T12:40:31.495Z,101608.16
2022-12-04T12:43:06.289Z,101604.81
2022-12-04T12:45:42.712Z,101603.03
2022-12-04T12:48:24.275Z,101608.16
2022-12-04T12:51:28.099Z,101615.97
2022-12-04T12:53:51.307Z,101605.84
2022-12-04T12:56:31.335Z,101601.72
2022-12-04T12:59:04.367Z,101596.59
2022-12-04T13:01:43.817Z,101602.38
2022-12-04T13:04:18.596Z,101605.06
2022-12-04T13:06:49.968Z,101606.84
2022-12-04T13:09:25.555Z,101603.50
2022-12-04T13:12:00.411Z,101604.53
2022-12-04T13:14:28.915Z,101598.63
2022-12-04T13:17:03.019Z,101600.41
2022-12-04T13:19:36.187Z,101592.84
2022-12-04T13:22:15.807Z,101596.28
2022-12-04T13:25:20.681Z,101595.50
2022-12-04T13:28:04.594Z,101602.44
2022-12-04T13:30:43.518Z,101597.31
2022-12-04T13:33:56.612Z,101594.09
2022-12-04T13:36:39.143Z,101593.50
2022-12-04T13:39:49.295Z,101589.94
2022-12-04T13:42:25.063Z,101569.56
2022-12-04T13:44:57.628Z,101555.03
2022-12-04T13:47:28.365Z,101547.25
2022-12-04T13:50:26.245Z,101542.88
2022-12-04T13:52:54.962Z,101544.69
2022-12-04T13:55:30.120Z,101541.22
2022-12-04T13:58:00.903Z,101540.31
2022-12-04T14:00:33.550Z,101537.75
2022-12-04T14:03:06.044Z,101545.44
2022-12-04T14:05:42.701Z,101540.88
2022-12-04T14:08:25.537Z,101535.97
2022-12-04T14:11:03.624Z,101546.22
2022-12-04T14:13:43.898Z,101546.22
2022-12-04T14:16:22.926Z,101555.69
2022-12-04T14:18:54.892Z,101563.41
2022-12-04T14:21:24.097Z,101565.97
2022-12-04T14:23:53.939Z,101572.91
2022-12-04T14:26:37.399Z,101559.28
2022-12-04T14:29:34.720Z,101557.72
2022-12-04T14:32:14.979Z,101558.63
2022-12-04T14:34:44.125Z,101549.91
2022-12-04T14:37:31.970Z,101556.72
2022-12-04T14:40:01.881Z,101549.03
2022-12-04T14:42:37.843Z,101553.38
2022-12-04T14:45:21.428Z,101558.50
2022-12-04T14:48:07.363Z,101561.88
2022-12-04T14:50:43.516Z,101560.06
2022-12-04T14:53:24.127Z,101551.47
2022-12-04T14:56:04.619Z,101550.03
2022-12-04T14:58:38.948Z,101551.81
2022-12-04T15:01:22.705Z,101547.84
2022-12-04T15:03:58.050Z,101547.19
2022-12-04T15:06:28.551Z,101545.34
2022-12-04T15:09:20.322Z,101540.03
2022-12-04T15:12:09.061Z,101540.13
2022-12-04T15:14:42.135Z,101539.13
2022-12-04T15:17:11.251Z,101539.91
2022-12-04T15:19:41.458Z,101544.25
2022-12-04T15:22:19.449Z,101543.38
2022-12-04T15:24:48.106Z,101545.16
2022-12-04T15:27:19.190Z,101551.81
2022-12-04T15:29:51.465Z,101556.19
2022-12-04T15:32:23.940Z,101552.84
2022-12-04T15:34:56.942Z,101567.19
2022-12-04T15:37:28.524Z,101560.41
2022-12-04T15:39:58.631Z,101556.94
2022-12-04T15:42:30.335Z,101557.72
2022-12-04T15:45:01.243Z,101550.94
2022-12-04T15:47:32.932Z,101551.72
2022-12-04T15:50:11.543Z,101562.97
2022-12-04T15:52:50.328Z,101556.94
2022-12-04T15:55:20.104Z,101552.59
2022-12-04T15:57:53.662Z,101559.63
2022-12-04T16:00:28.305Z,101558.97
2022-12-04T16:02:58.355Z,101552.97
2022-12-04T16:05:35.591Z,101558.84
2022-12-04T16:08:23.894Z,101554.09
2022-12-04T16:11:01.071Z,101555.88
2022-12-04T16:13:32.823Z,101557.66
2022-12-04T16:16:02.677Z,101566.13
2022-12-04T16:18:31.222Z,101566.13
2022-12-04T16:21:01.374Z,101558.56
2022-12-04T16:23:29.855Z,101557.91
2022-12-04T16:25:58.364Z,101564.81
2022-12-04T16:28:26.877Z,101570.81
2022-12-04T16:30:55.534Z,101561.34
2022-12-04T16:33:24.206Z,101560.47
2022-12-04T16:35:52.675Z,101562.13
2022-12-04T16:38:22.656Z,101556.31
2022-12-04T16:40:51.130Z,101560.78
2022-12-04T16:43:19.876Z,101551.19
2022-12-04T16:45:52.246Z,101548.63
2022-12-04T16:48:21.292Z,101559.00
2022-12-04T16:50:49.787Z,101551.44
2022-12-04T16:53:19.743Z,101550.66
2022-12-04T16:55:51.204Z,101542.16
2022-12-04T16:58:20.940Z,101541.38
2022-12-04T17:00:53.144Z,101543.06
2022-12-04T17:03:26.536Z,101546.41
2022-12-04T17:05:55.319Z,101552.19
2022-12-04T17:08:24.183Z,101546.97
2022-12-04T17:10:54.615Z,101547.97
2022-12-04T17:13:23.691Z,101551.31
2022-12-04T17:15:52.255Z,101542.72
2022-12-04T17:18:21.488Z,101556.56
2022-12-04T17:20:50.484Z,101548.09
2022-12-04T17:23:19.125Z,101553.44
2022-12-04T17:25:47.949Z,101551.78
2022-12-04T17:28:19.297Z,101539.06
2022-12-04T17:30:48.190Z,101544.19
2022-12-04T17:33:16.677Z,101536.50
2022-12-04T17:35:45.219Z,101540.59
2022-12-04T17:38:13.742Z,101543.41
2022-12-04T17:40:42.265Z,101539.06
2022-12-04T17:43:10.848Z,101550.31
2022-12-04T17:45:42.274Z,101551.88
2022-12-04T17:48:10.779Z,101547.53
2022-12-04T17:50:39.312Z,101549.31
2022-12-04T17:53:08.004Z,101540.72
2022-12-04T17:55:36.531Z,101538.53
2022-12-04T17:58:05.282Z,101543.66
2022-12-04T18:00:33.911Z,101545.44
2022-12-04T18:03:04.245Z,101534.50
2022-12-04T18:05:33.026Z,101524.91
2022-12-04T18:08:01.534Z,101538.84
2022-12-04T18:10:30.088Z,101531.16
2022-12-04T18:12:58.595Z,101528.69
2022-12-04T18:15:27.079Z,101525.13
2022-12-04T18:17:55.803Z,101525.78
2022-12-04T18:20:25.651Z,101525.56
2022-12-04T18:22:54.123Z,101525.47
2022-12-04T18:25:22.665Z,101520.41
2022-12-04T18:27:51.161Z,101531.47
2022-12-04T18:30:19.790Z,101532.25
2022-12-04T18:32:48.324Z,101535.06
2022-12-04T18:35:17.012Z,101521.09
2022-12-04T18:37:47.091Z,101530.69
2022-12-04T18:40:15.986Z,101535.06
2022-12-04T18:42:44.606Z,101536.06
2022-12-04T18:45:13.238Z,101531.72
2022-12-04T18:47:41.710Z,101533.50
2022-12-04T18:50:11.145Z,101527.56
2022-12-04T18:52:40.527Z,101530.94
2022-12-04T18:55:11.515Z,101524.81
2022-12-04T18:57:40.367Z,101531.84
2022-12-04T19:00:09.927Z,101541.06
2022-12-04T19:02:38.843Z,101548.09
2022-12-04T19:05:07.683Z,101550.47
2022-12-04T19:07:36.499Z,101537.72
2022-12-04T19:10:12.758Z,101543.88
2022-12-04T19:12:42.942Z,101551.47
2022-12-04T19:15:12.304Z,101541.19
2022-12-04T19:17:40.791Z,101545.53
2022-12-04T19:20:10.683Z,101541.44
2022-12-04T19:22:39.470Z,101539.88
2022-12-04T19:25:13.030Z,101537.41
2022-12-04T19:27:43.064Z,101541.88
2022-12-04T19:30:13.924Z,101547.03
2022-12-04T19:32:43.282Z,101555.72
2022-12-04T19:35:11.815Z,101554.84
2022-12-04T19:37:42.114Z,101548.81
2022-12-04T19:40:13.748Z,101548.13
2022-12-04T19:42:43.732Z,101547.22
2022-12-04T19:45:12.496Z,101543.91
2022-12-04T19:47:40.996Z,101535.97
2022-12-04T19:50:10.376Z,101538.84
2022-12-04T19:52:38.891Z,101540.75
2022-12-04T19:55:08.991Z,101544.09
2022-12-04T19:57:39.687Z,101542.66
2022-12-04T20:00:11.000Z,101539.28
2022-12-04T20:02:42.185Z,101535.84
2022-12-04T20:05:10.929Z,101541.13
2022-12-04T20:07:41.103Z,101535.84
2022-12-04T20:10:10.801Z,101535.84
2022-12-04T20:12:39.323Z,101530.94
2022-12-04T20:15:09.955Z,101531.94
2022-12-04T20:17:38.445Z,101534.28
2022-12-04T20:20:09.274Z,101519.78
2022-12-04T20:22:37.949Z,101521.56
2022-12-04T20:25:11.711Z,101511.41
2022-12-04T20:27:40.437Z,101519.31
2022-12-04T20:30:12.284Z,101516.00
2022-12-04T20:32:57.801Z,101508.28
2022-12-04T20:36:25.740Z,101510.84
2022-12-04T20:39:06.978Z,101511.63
2022-12-04T20:41:51.377Z,101512.41
2022-12-04T20:44:40.542Z,101510.63
2022-12-04T20:47:47.486Z,101510.63
2022-12-04T20:50:32.206Z,101503.72
2022-12-04T20:53:25.244Z,101500.34
2022-12-04T20:56:29.017Z,101508.16
2022-12-04T20:59:09.068Z,101511.63
2022-12-04T21:01:51.902Z,101521.22
2022-12-04T21:04:32.181Z,101518.44
2022-12-04T21:07:02.609Z,101514.84
2022-12-04T21:09:51.525Z,101511.53
2022-12-04T21:12:46.471Z,101509.72
2022-12-04T21:15:49.064Z,101508.84
2022-12-04T21:18:27.978Z,101514.84
2022-12-04T21:21:04.610Z,101504.56
2022-12-04T21:23:57.983Z,101506.28
2022-12-04T21:26:34.691Z,101501.25
2022-12-04T21:29:10.034Z,101503.47
2022-12-04T21:31:41.057Z,101504.50
2022-12-04T21:34:19.594Z,101502.91
2022-12-04T21:36:57.209Z,101508.06
2022-12-04T21:39:32.428Z,101513.19
2022-12-04T21:42:25.248Z,101501.94
2022-12-04T21:45:02.773Z,101493.44
2022-12-04T21:47:40.853Z,101496.00
2022-12-04T21:50:23.562Z,101500.34
2022-12-04T21:53:07.547Z,101495.22
2022-12-04T21:55:40.035Z,101502.13
2022-12-04T21:58:08.547Z,101500.34
2022-12-04T22:00:37.030Z,101495.22
2022-12-04T22:03:06.198Z,101495.22
2022-12-04T22:05:34.889Z,101485.63
2022-12-04T22:08:04.967Z,101488.06
2022-12-04T22:10:33.671Z,101496.78
2022-12-04T22:13:02.339Z,101494.97
2022-12-04T22:15:30.814Z,101494.97
2022-12-04T22:17:59.281Z,101491.41
2022-12-04T22:20:27.794Z,101487.06
2022-12-04T22:22:56.301Z,101483.72
2022-12-04T22:25:26.363Z,101480.16
2022-12-04T22:27:54.872Z,101484.28
2022-12-04T22:30:23.577Z,101482.72
2022-12-04T22:32:52.403Z,101488.53
2022-12-04T22:35:20.987Z,101485.28
2022-12-04T22:37:49.524Z,101485.28
2022-12-04T22:40:18.291Z,101485.19
2022-12-04T22:42:48.204Z,101480.72
2022-12-04T22:45:16.794Z,101481.50
2022-12-04T22:47:45.593Z,101477.16
2022-12-04T22:50:14.125Z,101473.78
2022-12-04T22:52:42.646Z,101469.78
2022-12-04T22:55:11.230Z,101462.84
2022-12-04T22:57:39.723Z,101469.78
2022-12-04T23:00:11.607Z,101465.50
2022-12-04T23:02:40.185Z,101466.66
2022-12-04T23:05:08.845Z,101463.19
2022-12-04T23:07:38.725Z,101464.75
2022-12-04T23:10:08.372Z,101467.31
2022-12-04T23:12:36.855Z,101463.06
2022-12-04T23:15:06.100Z,101456.38
2022-12-04T23:17:36.008Z,101461.50
2022-12-04T23:20:05.170Z,101459.03
2022-12-04T23:22:33.680Z,101453.13
2022-12-04T23:25:02.315Z,101452.13
2022-12-04T23:27:32.061Z,101452.13
2022-12-04T23:30:00.570Z,101452.91
2022-12-04T23:32:29.396Z,101452.13
2022-12-04T23:34:59.271Z,101451.25
2022-12-04T23:37:27.891Z,101445.88
2022-12-04T23:39:56.696Z,101446.97
2022-12-04T23:42:25.471Z,101447.88
2022-12-04T23:44:54.012Z,101460.59
2022-12-04T23:47:22.566Z,101451.91
2022-12-04T23:49:51.111Z,101450.34
2022-12-04T23:52:21.025Z,101452.13
2022-12-04T23:54:49.543Z,101460.59
2022-12-04T23:57:18.014Z,101445.09
2022-12-04T23:59:46.784Z,101445.09
